createdAt,value
2022-08-25T00:00:24.355Z,2.03
2022-08-25T00:02:55.680Z,1.42
2022-08-25T00:05:27.739Z,1.63
2022-08-25T00:07:57.262Z,3.00
2022-08-25T00:10:24.889Z,1.80
2022-08-25T00:12:52.369Z,2.55
2022-08-25T00:15:19.727Z,1.60
2022-08-25T00:17:47.128Z,1.98
2022-08-25T00:20:15.090Z,2.20
2022-08-25T00:22:42.394Z,2.10
2022-08-25T00:25:10.044Z,1.77
2022-08-25T00:27:37.416Z,1.80
2022-08-25T00:30:06.010Z,1.90
2022-08-25T00:32:33.326Z,1.67
2022-08-25T00:35:00.774Z,1.50
2022-08-25T00:37:28.074Z,1.70
2022-08-25T00:39:57.169Z,1.73
2022-08-25T00:42:25.582Z,1.85
2022-08-25T00:44:53.825Z,1.60
2022-08-25T00:47:21.147Z,2.50
2022-08-25T00:49:58.933Z,1.60
2022-08-25T00:52:37.360Z,1.70
2022-08-25T00:55:07.886Z,1.67
2022-08-25T00:57:51.993Z,1.80
2022-08-25T01:00:35.917Z,1.70
2022-08-25T01:03:03.746Z,1.60
2022-08-25T01:05:32.027Z,1.60
2022-08-25T01:08:03.116Z,1.98
2022-08-25T01:10:36.121Z,1.70
2022-08-25T01:13:18.075Z,2.08
2022-08-25T01:15:47.661Z,1.70
2022-08-25T01:18:15.933Z,1.70
2022-08-25T01:20:43.645Z,1.70
2022-08-25T01:23:11.050Z,2.05
2022-08-25T01:26:03.582Z,1.55
2022-08-25T01:28:30.961Z,1.70
2022-08-25T01:30:58.393Z,1.55
2022-08-25T01:33:26.337Z,1.70
2022-08-25T01:35:54.429Z,1.83
2022-08-25T01:38:21.761Z,1.80
2022-08-25T01:40:50.394Z,1.70
2022-08-25T01:43:32.266Z,2.05
2022-08-25T01:45:59.617Z,2.00
2022-08-25T01:48:26.913Z,2.20
2022-08-25T01:50:54.185Z,1.90
2022-08-25T01:53:33.186Z,1.80
2022-08-25T01:56:11.606Z,1.90
2022-08-25T01:58:42.831Z,1.88
2022-08-25T02:01:15.742Z,2.15
2022-08-25T02:03:46.484Z,1.80
2022-08-25T02:06:29.915Z,1.70
2022-08-25T02:09:01.039Z,2.60
2022-08-25T02:11:29.280Z,1.83
2022-08-25T02:13:56.691Z,2.00
2022-08-25T02:16:28.491Z,2.38
2022-08-25T02:18:57.088Z,2.22
2022-08-25T02:21:24.533Z,1.95
2022-08-25T02:23:52.079Z,1.90
2022-08-25T02:26:20.013Z,2.17
2022-08-25T02:28:49.366Z,2.00
2022-08-25T02:31:18.768Z,2.00
2022-08-25T02:33:46.623Z,2.42
2022-08-25T02:36:14.177Z,1.88
2022-08-25T02:38:41.736Z,2.13
2022-08-25T02:41:14.843Z,2.28
2022-08-25T02:43:44.128Z,2.60
2022-08-25T02:46:12.645Z,1.88
2022-08-25T02:48:40.558Z,2.20
2022-08-25T02:51:09.646Z,2.10
2022-08-25T02:53:40.874Z,3.17
2022-08-25T02:56:10.116Z,2.40
2022-08-25T02:58:39.042Z,2.30
2022-08-25T03:01:08.049Z,2.30
2022-08-25T03:03:39.306Z,2.60
2022-08-25T03:06:11.010Z,2.30
2022-08-25T03:08:39.665Z,2.30
2022-08-25T03:11:07.790Z,2.53
2022-08-25T03:13:35.308Z,2.30
2022-08-25T03:16:04.312Z,2.63
2022-08-25T03:18:32.147Z,2.83
2022-08-25T03:20:59.838Z,2.35
2022-08-25T03:23:27.517Z,2.85
2022-08-25T03:26:14.761Z,2.60
2022-08-25T03:28:42.480Z,2.90
2022-08-25T03:31:10.472Z,2.53
2022-08-25T03:33:38.484Z,2.50
2022-08-25T03:36:06.916Z,2.50
2022-08-25T03:38:34.874Z,2.38
2022-08-25T03:41:02.252Z,2.72
2022-08-25T03:43:29.612Z,2.15
2022-08-25T03:45:57.326Z,2.13
2022-08-25T03:48:25.133Z,2.30
2022-08-25T03:50:54.748Z,2.42
2022-08-25T03:53:22.252Z,2.58
2022-08-25T03:55:49.596Z,2.58
2022-08-25T03:58:18.101Z,2.40
2022-08-25T04:00:45.443Z,2.45
2022-08-25T04:03:12.812Z,2.28
2022-08-25T04:05:40.038Z,2.20
2022-08-25T04:08:08.011Z,2.97
2022-08-25T04:10:36.976Z,2.08
2022-08-25T04:13:05.988Z,2.58
2022-08-25T04:15:36.090Z,2.25
2022-08-25T04:18:04.841Z,2.58
2022-08-25T04:20:32.287Z,2.00
2022-08-25T04:23:01.310Z,1.95
2022-08-25T04:25:28.680Z,2.13
2022-08-25T04:27:55.982Z,1.95
2022-08-25T04:30:23.459Z,2.17
2022-08-25T04:32:50.957Z,2.20
2022-08-25T04:35:18.234Z,2.10
2022-08-25T04:37:48.127Z,1.92
2022-08-25T04:40:15.489Z,2.00
2022-08-25T04:42:44.852Z,2.38
2022-08-25T04:45:15.381Z,2.00
2022-08-25T04:47:42.639Z,1.95
2022-08-25T04:50:10.733Z,1.95
2022-08-25T04:52:38.023Z,2.13
2022-08-25T04:55:05.623Z,2.30
2022-08-25T04:57:32.940Z,1.90
2022-08-25T05:00:00.242Z,2.20
2022-08-25T05:02:27.900Z,2.00
2022-08-25T05:04:55.961Z,2.33
2022-08-25T05:07:23.276Z,2.22
2022-08-25T05:09:50.521Z,1.85
2022-08-25T05:12:18.085Z,2.58
2022-08-25T05:14:45.395Z,1.95
2022-08-25T05:17:12.734Z,1.98
2022-08-25T05:19:40.048Z,2.13
2022-08-25T05:22:07.275Z,2.22
2022-08-25T05:24:34.674Z,1.88
2022-08-25T05:27:03.850Z,2.58
2022-08-25T05:29:31.195Z,2.45
2022-08-25T05:31:58.529Z,1.85
2022-08-25T05:34:25.916Z,2.08
2022-08-25T05:36:53.278Z,2.10
2022-08-25T05:39:20.599Z,2.20
2022-08-25T05:41:47.933Z,2.20
2022-08-25T05:44:19.090Z,3.05
2022-08-25T05:46:48.415Z,2.30
2022-08-25T05:49:15.684Z,2.85
2022-08-25T05:51:43.009Z,3.10
2022-08-25T05:54:10.316Z,3.50
2022-08-25T05:56:37.637Z,5.38
2022-08-25T05:59:09.108Z,3.30
2022-08-25T06:01:55.280Z,6.70
2022-08-25T06:04:22.656Z,7.82
2022-08-25T06:06:53.439Z,6.75
2022-08-25T06:09:21.347Z,10.10
2022-08-25T06:11:52.824Z,11.77
2022-08-25T06:14:22.604Z,11.45
2022-08-25T06:16:51.630Z,11.00
2022-08-25T06:19:19.368Z,11.60
2022-08-25T06:21:46.637Z,10.85
2022-08-25T06:24:15.671Z,13.25
2022-08-25T06:26:44.145Z,13.57
2022-08-25T06:29:12.888Z,18.23
2022-08-25T06:31:41.186Z,11.63
2022-08-25T06:34:08.798Z,17.80
2022-08-25T06:36:36.084Z,10.88
2022-08-25T06:39:03.525Z,11.32
2022-08-25T06:41:36.813Z,15.90
2022-08-25T06:44:05.707Z,14.25
2022-08-25T06:46:36.547Z,12.15
2022-08-25T06:49:05.726Z,9.15
2022-08-25T06:51:36.158Z,13.43
2022-08-25T06:54:05.150Z,10.98
2022-08-25T06:56:34.033Z,8.48
2022-08-25T06:59:03.162Z,9.60
2022-08-25T07:01:32.168Z,12.65
2022-08-25T07:04:01.648Z,12.20
2022-08-25T07:06:31.870Z,9.23
2022-08-25T07:08:59.564Z,9.50
2022-08-25T07:11:27.001Z,11.77
2022-08-25T07:13:54.647Z,10.35
2022-08-25T07:16:22.552Z,9.10
2022-08-25T07:18:56.500Z,12.05
2022-08-25T07:21:33.210Z,9.23
2022-08-25T07:24:03.376Z,9.85
2022-08-25T07:26:37.713Z,7.30
2022-08-25T07:29:09.612Z,10.90
2022-08-25T07:31:37.530Z,8.75
2022-08-25T07:34:24.071Z,11.90
2022-08-25T07:36:53.677Z,9.27
2022-08-25T07:39:21.908Z,12.35
2022-08-25T07:41:51.911Z,9.40
2022-08-25T07:44:21.103Z,8.13
2022-08-25T07:46:48.757Z,10.20
2022-08-25T07:49:23.492Z,7.63
2022-08-25T07:52:05.395Z,7.77
2022-08-25T07:54:35.620Z,9.82
2022-08-25T07:57:07.306Z,10.38
2022-08-25T07:59:39.350Z,7.03
2022-08-25T08:02:09.303Z,10.52
2022-08-25T08:04:48.757Z,10.98
2022-08-25T08:07:23.055Z,5.57
2022-08-25T08:10:05.295Z,8.18
2022-08-25T08:12:39.581Z,8.57
2022-08-25T08:15:10.263Z,6.45
2022-08-25T08:17:39.653Z,7.53
2022-08-25T08:20:09.550Z,7.00
2022-08-25T08:22:40.971Z,7.05
2022-08-25T08:25:11.060Z,6.03
2022-08-25T08:27:39.527Z,7.82
2022-08-25T08:30:07.802Z,6.25
2022-08-25T08:32:53.656Z,8.00
2022-08-25T08:35:22.535Z,6.32
2022-08-25T08:37:52.531Z,7.68
2022-08-25T08:40:22.075Z,6.97
2022-08-25T08:42:57.805Z,6.30
2022-08-25T08:45:35.600Z,5.28
2022-08-25T08:48:49.862Z,4.88
2022-08-25T08:51:25.208Z,4.93
2022-08-25T08:54:01.844Z,5.75
2022-08-25T08:56:31.591Z,5.28
2022-08-25T08:59:06.327Z,5.80
2022-08-25T09:01:54.067Z,4.95
2022-08-25T09:04:36.846Z,4.72
2022-08-25T09:07:11.058Z,4.88
2022-08-25T09:09:43.042Z,5.25
2022-08-25T09:12:23.421Z,4.35
2022-08-25T09:15:12.549Z,4.30
2022-08-25T09:17:56.517Z,5.70
2022-08-25T09:20:57.724Z,4.80
2022-08-25T09:24:02.894Z,4.47
2022-08-25T09:26:39.703Z,6.40
2022-08-25T09:29:17.189Z,4.05
2022-08-25T09:31:44.915Z,3.97
2022-08-25T09:34:18.645Z,6.50
2022-08-25T09:36:48.569Z,5.50
2022-08-25T09:39:16.224Z,3.28
2022-08-25T09:41:59.305Z,3.50
2022-08-25T09:44:44.690Z,4.38
2022-08-25T09:47:25.708Z,4.78
2022-08-25T09:50:01.317Z,3.83
2022-08-25T09:52:37.407Z,3.28
2022-08-25T09:55:16.255Z,4.30
2022-08-25T09:57:43.497Z,2.88
2022-08-25T10:00:22.831Z,2.55
2022-08-25T10:03:22.532Z,3.08
2022-08-25T10:06:13.151Z,3.60
2022-08-25T10:08:57.358Z,2.72
2022-08-25T10:11:38.422Z,4.50
2022-08-25T10:14:35.010Z,5.25
2022-08-25T10:17:27.621Z,2.65
2022-08-25T10:20:11.834Z,2.75
2022-08-25T10:22:41.187Z,2.95
2022-08-25T10:25:12.252Z,2.38
2022-08-25T10:27:50.897Z,3.15
2022-08-25T10:30:31.332Z,2.92
2022-08-25T10:33:07.878Z,3.58
2022-08-25T10:35:48.003Z,3.00
2022-08-25T10:38:45.277Z,2.45
2022-08-25T10:42:03.027Z,2.33
2022-08-25T10:45:08.034Z,2.40
2022-08-25T10:48:02.651Z,2.40
2022-08-25T10:51:07.167Z,2.33
2022-08-25T10:53:58.810Z,3.47
2022-08-25T10:56:43.170Z,2.00
2022-08-25T10:59:23.630Z,1.60
2022-08-25T11:02:07.006Z,3.28
2022-08-25T11:04:38.978Z,2.38
2022-08-25T11:07:29.356Z,1.63
2022-08-25T11:10:09.795Z,3.20
2022-08-25T11:12:57.371Z,1.63
2022-08-25T11:15:54.596Z,4.35
2022-08-25T11:18:31.863Z,2.10
2022-08-25T11:21:15.875Z,2.08
2022-08-25T11:26:31.100Z,1.92
2022-08-25T11:29:17.825Z,1.90
2022-08-25T11:31:54.057Z,1.60
2022-08-25T11:34:22.685Z,2.90
2022-08-25T11:36:54.853Z,2.83
2022-08-25T11:39:56.262Z,1.70
2022-08-25T11:42:26.704Z,1.98
2022-08-25T11:45:54.492Z,2.75
2022-08-25T11:48:35.367Z,1.42
2022-08-25T11:51:09.513Z,2.00
2022-08-25T11:56:34.909Z,2.45
2022-08-25T11:59:03.052Z,2.53
2022-08-25T12:01:39.397Z,2.58
2022-08-25T12:04:46.758Z,2.13
2022-08-25T12:07:20.514Z,1.33
2022-08-25T12:09:53.676Z,2.63
2022-08-25T12:13:01.136Z,2.60
2022-08-25T12:15:43.671Z,1.35
2022-08-25T12:18:14.113Z,1.20
2022-08-25T12:20:57.812Z,2.75
2022-08-25T12:23:35.244Z,1.60
2022-08-25T12:26:12.026Z,2.20
2022-08-25T12:28:48.217Z,1.30
2022-08-25T12:31:35.206Z,2.67
2022-08-25T12:34:08.567Z,3.13
2022-08-25T12:36:54.905Z,2.05
2022-08-25T12:39:29.314Z,2.70
2022-08-25T12:42:07.198Z,3.40
2022-08-25T12:44:40.843Z,1.40
2022-08-25T12:47:27.185Z,1.58
2022-08-25T12:50:14.969Z,1.35
2022-08-25T12:52:43.961Z,1.27
2022-08-25T12:55:14.151Z,1.05
2022-08-25T12:57:50.805Z,1.30
2022-08-25T13:00:23.812Z,1.00
2022-08-25T13:06:50.818Z,2.28
2022-08-25T13:09:36.731Z,1.10
2022-08-25T13:12:14.836Z,1.27
2022-08-25T13:14:44.737Z,1.50
2022-08-25T13:17:24.267Z,1.20
2022-08-25T13:19:51.549Z,0.95
2022-08-25T13:22:20.804Z,1.38
2022-08-25T13:24:51.183Z,1.00
2022-08-25T13:27:27.934Z,1.42
2022-08-25T13:29:58.354Z,1.13
2022-08-25T13:32:32.094Z,1.13
2022-08-25T13:35:22.927Z,1.75
2022-08-25T13:37:53.890Z,1.25
2022-08-25T13:40:27.840Z,1.13
2022-08-25T13:43:09.145Z,1.20
2022-08-25T13:45:42.749Z,1.48
2022-08-25T13:48:23.069Z,1.50
2022-08-25T13:51:06.431Z,2.58
2022-08-25T13:53:36.680Z,1.55
2022-08-25T13:56:04.727Z,1.48
2022-08-25T13:58:45.043Z,1.58
2022-08-25T14:01:47.798Z,2.95
2022-08-25T14:04:32.384Z,3.83
2022-08-25T14:07:34.460Z,3.75
2022-08-25T14:10:05.639Z,2.10
2022-08-25T14:12:39.511Z,1.58
2022-08-25T14:15:20.104Z,1.45
2022-08-25T14:18:13.842Z,3.17
2022-08-25T14:20:47.605Z,2.95
2022-08-25T14:23:22.218Z,1.20
2022-08-25T14:25:54.162Z,1.50
2022-08-25T14:28:24.342Z,1.40
2022-08-25T14:30:56.564Z,1.92
2022-08-25T14:33:29.982Z,2.05
2022-08-25T14:36:02.512Z,1.38
2022-08-25T14:38:29.848Z,1.60
2022-08-25T14:40:59.030Z,4.35
2022-08-25T14:43:31.408Z,2.85
2022-08-25T14:46:05.587Z,2.22
2022-08-25T14:48:40.646Z,5.72
2022-08-25T14:51:13.486Z,2.00
2022-08-25T14:53:42.737Z,1.75
2022-08-25T14:56:10.861Z,2.35
2022-08-25T14:58:51.175Z,2.22
2022-08-25T15:01:28.485Z,2.53
2022-08-25T15:04:11.701Z,4.75
2022-08-25T15:06:43.597Z,2.55
2022-08-25T15:09:16.597Z,2.30
2022-08-25T15:11:47.297Z,2.63
2022-08-25T15:14:28.491Z,2.42
2022-08-25T15:17:01.370Z,3.78
2022-08-25T15:19:29.438Z,2.90
2022-08-25T15:21:57.993Z,6.85
2022-08-25T15:24:28.299Z,6.65
2022-08-25T15:27:01.766Z,7.60
2022-08-25T15:29:31.229Z,6.50
2022-08-25T15:32:00.898Z,9.57
2022-08-25T15:34:29.391Z,7.25
2022-08-25T15:36:58.458Z,5.22
2022-08-25T15:39:27.265Z,3.65
2022-08-25T15:41:54.604Z,3.00
2022-08-25T15:44:25.099Z,3.25
2022-08-25T15:46:56.962Z,3.08
2022-08-25T15:49:24.890Z,3.35
2022-08-25T15:51:55.804Z,2.42
2022-08-25T15:54:26.734Z,3.45
2022-08-25T15:56:55.853Z,3.88
2022-08-25T15:59:25.133Z,2.58
2022-08-25T16:01:53.612Z,3.42
2022-08-25T16:04:23.338Z,3.13
2022-08-25T16:06:51.951Z,2.95
2022-08-25T16:09:23.032Z,3.72
2022-08-25T16:11:56.148Z,2.45
2022-08-25T16:14:27.848Z,5.07
2022-08-25T16:16:58.193Z,2.58
2022-08-25T16:19:28.795Z,9.05
2022-08-25T16:21:56.588Z,4.07
2022-08-25T16:24:24.457Z,6.72
2022-08-25T16:26:52.357Z,8.00
2022-08-25T16:29:22.848Z,7.32
2022-08-25T16:31:54.980Z,7.10
2022-08-25T16:34:24.447Z,4.05
2022-08-25T16:36:52.739Z,6.10
2022-08-25T16:39:21.367Z,3.85
2022-08-25T16:41:49.447Z,8.90
2022-08-25T16:44:19.607Z,9.45
2022-08-25T16:46:54.030Z,10.25
2022-08-25T16:49:24.211Z,4.63
2022-08-25T16:51:57.485Z,6.75
2022-08-25T16:54:44.190Z,5.82
2022-08-25T16:57:12.684Z,6.72
2022-08-25T16:59:39.994Z,9.45
2022-08-25T17:02:07.570Z,7.97
2022-08-25T17:04:34.849Z,5.30
2022-08-25T17:07:02.196Z,5.53
2022-08-25T17:09:30.778Z,10.45
2022-08-25T17:11:58.094Z,6.82
2022-08-25T17:14:26.193Z,7.85
2022-08-25T17:16:56.327Z,7.50
2022-08-25T17:19:25.848Z,5.35
2022-08-25T17:21:55.223Z,5.30
2022-08-25T17:24:29.525Z,7.88
2022-08-25T17:27:01.337Z,10.93
2022-08-25T17:29:29.006Z,16.02
2022-08-25T17:31:56.292Z,20.85
2022-08-25T17:34:24.200Z,14.35
2022-08-25T17:36:53.195Z,10.80
2022-08-25T17:39:22.361Z,20.25
2022-08-25T17:41:50.610Z,15.05
2022-08-25T17:44:18.259Z,21.15
2022-08-25T17:46:48.026Z,28.55
2022-08-25T17:49:17.511Z,17.90
2022-08-25T17:51:45.356Z,23.60
2022-08-25T17:54:13.109Z,15.65
2022-08-25T17:56:40.531Z,11.43
2022-08-25T17:59:08.255Z,16.33
2022-08-25T18:01:40.705Z,10.20
2022-08-25T18:04:17.236Z,14.15
2022-08-25T18:06:46.637Z,9.07
2022-08-25T18:09:14.600Z,9.35
2022-08-25T18:11:42.566Z,9.50
2022-08-25T18:14:11.385Z,8.55
2022-08-25T18:16:39.012Z,9.50
2022-08-25T18:19:09.767Z,8.43
2022-08-25T18:21:37.874Z,5.63
2022-08-25T18:24:06.587Z,6.22
2022-08-25T18:26:33.905Z,6.75
2022-08-25T18:29:01.545Z,6.68
2022-08-25T18:31:28.955Z,5.85
2022-08-25T18:33:56.313Z,4.90
2022-08-25T18:36:23.582Z,5.85
2022-08-25T18:39:09.697Z,5.28
2022-08-25T18:41:41.054Z,5.00
2022-08-25T18:44:10.945Z,3.47
2022-08-25T18:46:39.885Z,4.53
2022-08-25T18:49:07.575Z,3.83
2022-08-25T18:51:36.100Z,3.42
2022-08-25T18:54:04.664Z,3.25
2022-08-25T18:56:32.062Z,3.75
2022-08-25T18:59:00.202Z,5.55
2022-08-25T19:01:27.631Z,3.83
2022-08-25T19:03:59.134Z,3.00
2022-08-25T19:06:27.452Z,2.08
2022-08-25T19:08:54.871Z,4.03
2022-08-25T19:11:22.629Z,4.70
2022-08-25T19:13:50.802Z,3.38
2022-08-25T19:16:34.606Z,2.53
2022-08-25T19:19:03.733Z,3.15
2022-08-25T19:21:31.265Z,2.28
2022-08-25T19:24:00.384Z,3.67
2022-08-25T19:26:30.997Z,1.65
2022-08-25T19:28:58.869Z,2.70
2022-08-25T19:31:27.789Z,2.42
2022-08-25T19:34:00.785Z,2.38
2022-08-25T19:36:30.224Z,2.83
2022-08-25T19:39:01.220Z,2.40
2022-08-25T19:41:31.419Z,1.70
2022-08-25T19:43:59.445Z,3.72
2022-08-25T19:46:33.299Z,1.42
2022-08-25T19:49:10.038Z,1.67
2022-08-25T19:51:40.720Z,2.03
2022-08-25T19:54:10.188Z,3.67
2022-08-25T19:56:43.908Z,1.75
2022-08-25T19:59:34.341Z,2.95
2022-08-25T20:02:15.208Z,1.48
2022-08-25T20:04:49.812Z,1.90
2022-08-25T20:07:19.060Z,1.65
2022-08-25T20:09:46.569Z,2.53
2022-08-25T20:14:42.388Z,2.13
2022-08-25T20:17:14.541Z,2.13
2022-08-25T20:19:51.909Z,1.50
2022-08-25T20:22:20.699Z,2.78
2022-08-25T20:24:55.797Z,1.83
2022-08-25T20:27:30.891Z,2.22
2022-08-25T20:29:59.673Z,6.13
2022-08-25T20:32:32.075Z,4.80
2022-08-25T20:35:00.423Z,6.60
2022-08-25T20:37:27.733Z,4.60
2022-08-25T20:39:55.192Z,6.53
2022-08-25T20:42:22.666Z,5.72
2022-08-25T20:44:50.244Z,4.70
2022-08-25T20:47:20.677Z,5.97
2022-08-25T20:49:49.390Z,6.38
2022-08-25T20:52:19.189Z,7.50
2022-08-25T20:54:49.577Z,4.63
2022-08-25T20:57:25.902Z,7.97
2022-08-25T20:59:54.771Z,7.55
2022-08-25T21:02:23.647Z,7.93
2022-08-25T21:04:51.332Z,6.90
2022-08-25T21:07:19.725Z,9.73
2022-08-25T21:09:48.779Z,5.82
2022-08-25T21:12:16.388Z,8.93
2022-08-25T21:14:44.307Z,5.95
2022-08-25T21:17:12.841Z,5.43
2022-08-25T21:19:41.618Z,5.63
2022-08-25T21:22:10.718Z,8.15
2022-08-25T21:24:39.025Z,5.82
2022-08-25T21:27:06.719Z,5.50
2022-08-25T21:29:34.199Z,1.98
2022-08-25T21:32:01.907Z,4.25
2022-08-25T21:34:29.823Z,3.78
2022-08-25T21:37:00.365Z,3.38
2022-08-25T21:39:29.551Z,2.50
2022-08-25T21:42:00.211Z,7.35
2022-08-25T21:44:28.697Z,4.10
2022-08-25T21:46:56.570Z,4.28
2022-08-25T21:49:25.367Z,3.15
2022-08-25T21:52:00.103Z,2.92
2022-08-25T21:54:29.278Z,7.13
2022-08-25T21:57:06.422Z,2.05
2022-08-25T21:59:36.568Z,3.42
2022-08-25T22:02:08.800Z,2.28
2022-08-25T22:04:38.897Z,3.08
2022-08-25T22:07:07.752Z,3.55
2022-08-25T22:09:35.777Z,3.45
2022-08-25T22:12:03.995Z,3.80
2022-08-25T22:14:32.343Z,4.22
2022-08-25T22:17:00.244Z,3.70
2022-08-25T22:19:28.190Z,3.00
2022-08-25T22:21:56.953Z,5.80
2022-08-25T22:24:28.352Z,2.13
2022-08-25T22:26:56.303Z,1.60
2022-08-25T22:29:25.261Z,2.78
2022-08-25T22:32:00.687Z,1.65
2022-08-25T22:34:33.213Z,1.88
2022-08-25T22:37:05.169Z,7.68
2022-08-25T22:39:34.473Z,2.60
2022-08-25T22:42:02.847Z,3.03
2022-08-25T22:44:30.367Z,2.08
2022-08-25T22:46:57.586Z,0.85
2022-08-25T22:49:29.041Z,1.45
2022-08-25T22:51:56.311Z,1.00
2022-08-25T22:54:23.961Z,3.08
2022-08-25T22:56:53.348Z,2.90
2022-08-25T22:59:22.535Z,1.48
2022-08-25T23:01:52.637Z,1.92
2022-08-25T23:04:22.790Z,1.92
2022-08-25T23:06:52.322Z,1.83
2022-08-25T23:09:19.587Z,1.48
2022-08-25T23:11:51.155Z,2.15
2022-08-25T23:14:19.036Z,2.20
2022-08-25T23:16:46.514Z,1.35
2022-08-25T23:19:14.941Z,2.40
2022-08-25T23:22:04.523Z,2.05
2022-08-25T23:24:32.241Z,1.60
2022-08-25T23:27:01.552Z,2.25
2022-08-25T23:29:30.327Z,0.80
2022-08-25T23:31:58.960Z,3.13
2022-08-25T23:34:27.559Z,1.52
2022-08-25T23:36:56.673Z,3.10
2022-08-25T23:39:24.134Z,2.03
2022-08-25T23:41:52.528Z,2.05
2022-08-25T23:44:21.967Z,1.42
2022-08-25T23:46:50.287Z,2.10
2022-08-25T23:49:19.973Z,1.05
2022-08-25T23:51:50.225Z,1.83
2022-08-25T23:54:21.125Z,1.40
2022-08-25T23:56:51.572Z,3.10
2022-08-25T23:59:24.466Z,2.40
